Time;durP1;ratioP1;P1;durP2;ratioP2;P2;SDS_P1;SDS_P2;PMS_P1;PMS_P2;Temp;Humidity;BMP_temperature;BMP_pressure;BME280_temperature;BME280_humidity;BME280_pressure;Samples;Min_cycle;Max_cycle;Signal;HPM_P1;HPM_P2
2023/06/24 00:00:45;;;;;;;12.65;6.43;;;;;;;27.29;58.23;96471.84;5034608;28;20025;-27
2023/06/24 00:03:12;;;;;;;15.75;6.47;;;;;;;27.62;56.83;96475.97;5033723;28;20025;-26
2023/06/24 00:05:38;;;;;;;13.30;6.78;;;;;;;27.36;57.74;96476.75;5034819;28;20025;-26
2023/06/24 00:08:06;;;;;;;15.60;7.25;;;;;;;27.52;57.09;96476.41;5040151;28;20028;-27
2023/06/24 00:10:32;;;;;;;15.30;7.38;;;;;;;27.67;56.73;96475.88;5041161;28;20036;-27
2023/06/24 00:13:01;;;;;;;18.08;6.95;;;;;;;27.58;56.92;96484.66;5034451;28;20032;-27
2023/06/24 00:15:26;;;;;;;13.80;7.00;;;;;;;27.64;56.64;96482.53;5034232;28;20036;-27
2023/06/24 00:17:52;;;;;;;19.10;7.35;;;;;;;27.65;56.49;96481.25;5033990;28;20029;-27
2023/06/24 00:20:20;;;;;;;16.02;8.05;;;;;;;27.44;57.69;96486.72;5033853;28;20022;-27
2023/06/24 00:22:48;;;;;;;19.73;7.40;;;;;;;27.33;57.36;96478.56;5047504;28;20439;-27
2023/06/24 00:25:14;;;;;;;16.30;7.32;;;;;;;27.38;57.84;96476.97;5041390;28;20083;-28
2023/06/24 00:27:41;;;;;;;13.30;7.47;;;;;;;27.59;56.64;96475.03;5039395;28;20441;-27
2023/06/24 00:30:07;;;;;;;13.82;7.22;;;;;;;27.36;57.42;96468.41;5033758;28;20021;-26
2023/06/24 00:32:33;;;;;;;16.92;7.65;;;;;;;27.48;56.73;96467.63;5034179;28;20017;-27
2023/06/24 00:34:59;;;;;;;12.40;6.45;;;;;;;27.63;56.16;96460.78;5034042;28;20073;-27
2023/06/24 00:37:25;;;;;;;20.23;7.93;;;;;;;27.43;57.19;96457.38;5033852;28;20456;-28
2023/06/24 00:39:51;;;;;;;16.95;6.85;;;;;;;27.36;56.65;96460.03;5033527;28;20080;-26
2023/06/24 00:42:17;;;;;;;17.90;7.13;;;;;;;27.27;57.53;96455.69;5034229;28;20036;-27
2023/06/24 00:44:43;;;;;;;15.90;7.25;;;;;;;27.11;57.60;96449.16;5033507;28;20056;-27
2023/06/24 00:47:08;;;;;;;15.25;7.32;;;;;;;27.47;57.01;96451.44;5033912;28;20105;-27
2023/06/24 00:49:34;;;;;;;15.20;7.03;;;;;;;27.25;57.56;96441.53;5033694;28;20029;-27
2023/06/24 00:52:00;;;;;;;17.05;6.70;;;;;;;27.20;57.44;96445.19;5033645;28;20018;-27
2023/06/24 00:54:30;;;;;;;15.00;6.35;;;;;;;27.34;56.71;96443.88;5033569;28;20096;-27
2023/06/24 00:56:57;;;;;;;13.70;6.63;;;;;;;27.49;56.00;96437.75;5034045;28;20371;-27
2023/06/24 00:59:22;;;;;;;16.10;7.30;;;;;;;27.41;56.48;96437.66;5033910;28;20108;-27
2023/06/24 01:01:52;;;;;;;14.50;7.28;;;;;;;27.38;56.55;96427.59;5039886;28;20468;-28
2023/06/24 01:04:19;;;;;;;15.43;6.88;;;;;;;27.36;57.03;96440.56;5033607;28;20017;-27
2023/06/24 01:06:45;;;;;;;13.98;7.00;;;;;;;27.23;56.84;96427.41;5033445;28;20028;-26
2023/06/24 01:09:12;;;;;;;15.57;6.70;;;;;;;27.22;57.00;96425.16;5033374;28;20022;-27
2023/06/24 01:11:39;;;;;;;16.50;6.82;;;;;;;26.99;57.88;96424.88;5033256;28;20044;-27
2023/06/24 01:14:04;;;;;;;13.75;6.68;;;;;;;27.03;57.62;96428.84;5040417;28;20017;-26
2023/06/24 01:16:51;;;;;;;18.08;7.07;;;;;;;27.09;58.16;96423.13;5039418;28;20437;-27
2023/06/24 01:19:41;;;;;;;16.55;7.18;;;;;;;27.11;58.19;96420.56;5033347;28;20467;-26
2023/06/24 01:22:34;;;;;;;21.60;8.13;;;;;;;26.99;58.56;96419.28;5033828;28;20037;-26
2023/06/24 01:25:17;;;;;;;15.98;7.88;;;;;;;27.26;58.10;96425.59;5033906;28;20029;-27
2023/06/24 01:28:08;;;;;;;17.25;7.07;;;;;;;27.38;57.54;96429.63;5033539;28;20076;-27
2023/06/24 01:30:56;;;;;;;20.85;7.45;;;;;;;27.15;58.16;96429.34;5038196;28;20028;-27
2023/06/24 01:33:36;;;;;;;18.38;7.50;;;;;;;27.13;57.98;96432.66;5033334;28;20037;-28
2023/06/24 01:36:08;;;;;;;21.48;7.60;;;;;;;27.20;57.62;96424.97;5033349;28;20021;-27
2023/06/24 01:38:40;;;;;;;21.15;7.88;;;;;;;27.28;57.85;96434.16;5033302;28;20411;-27
2023/06/24 01:41:07;;;;;;;19.02;8.48;;;;;;;27.17;58.13;96437.91;5046062;28;20561;-26
2023/06/24 01:43:35;;;;;;;33.17;9.65;;;;;;;27.26;58.09;96431.16;5032959;28;20387;-27
2023/06/24 01:46:03;;;;;;;22.38;9.02;;;;;;;27.26;58.08;96431.91;5033493;28;20112;-27
2023/06/24 01:48:34;;;;;;;17.42;8.07;;;;;;;27.13;58.06;96429.13;5032926;28;20518;-26
2023/06/24 01:51:08;;;;;;;18.70;8.93;;;;;;;27.13;58.25;96435.44;5032880;28;20048;-27
2023/06/24 01:53:39;;;;;;;23.20;8.55;;;;;;;27.17;57.91;96424.75;5032991;28;20112;-28
2023/06/24 01:56:07;;;;;;;23.88;9.50;;;;;;;27.24;58.03;96431.69;5033288;28;20021;-27
2023/06/24 01:58:35;;;;;;;24.73;9.20;;;;;;;27.03;58.89;96430.88;5033191;28;20087;-26
2023/06/24 02:01:02;;;;;;;17.50;8.60;;;;;;;27.06;58.83;96435.38;5033122;28;20021;-27
2023/06/24 02:03:29;;;;;;;19.20;9.80;;;;;;;27.11;58.49;96428.91;5033086;28;20435;-27
2023/06/24 02:05:56;;;;;;;16.92;8.30;;;;;;;27.13;58.21;96434.69;5033410;28;20430;-28
2023/06/24 02:08:23;;;;;;;12.52;7.65;;;;;;;27.21;57.97;96429.22;5032863;28;20037;-27
2023/06/24 02:10:49;;;;;;;14.57;8.32;;;;;;;27.04;58.38;96426.81;5032762;28;20479;-27
2023/06/24 02:13:18;;;;;;;18.15;8.57;;;;;;;27.17;58.18;96424.75;5032777;28;20105;-26
2023/06/24 02:15:45;;;;;;;18.30;9.15;;;;;;;27.00;58.74;96427.13;5033270;28;20032;-28
2023/06/24 02:18:13;;;;;;;18.38;9.32;;;;;;;27.22;58.06;96423.13;5032995;28;20021;-27
2023/06/24 02:20:40;;;;;;;13.30;8.35;;;;;;;27.03;58.46;96425.28;5040053;28;20116;-27
2023/06/24 02:23:08;;;;;;;15.00;8.52;;;;;;;26.97;58.75;96425.41;5033141;28;20030;-27
2023/06/24 02:25:34;;;;;;;17.25;9.68;;;;;;;26.95;58.72;96427.25;5032709;28;20044;-28
2023/06/24 02:28:00;;;;;;;14.85;9.15;;;;;;;27.10;58.54;96430.94;5035677;28;20531;-27
2023/06/24 02:30:26;;;;;;;16.52;8.35;;;;;;;26.91;58.72;96416.41;5036176;28;20467;-27
2023/06/24 02:32:52;;;;;;;14.40;8.20;;;;;;;27.17;58.03;96415.66;5036294;28;20037;-27
2023/06/24 02:35:17;;;;;;;16.73;8.40;;;;;;;27.05;58.42;96417.91;5036429;28;20087;-27
2023/06/24 02:37:43;;;;;;;15.05;8.50;;;;;;;27.07;58.11;96420.16;5035934;28;20026;-27
2023/06/24 02:40:10;;;;;;;15.20;8.02;;;;;;;26.98;58.15;96409.44;5035747;28;20491;-26
2023/06/24 02:42:35;;;;;;;14.80;8.77;;;;;;;27.12;57.72;96410.94;5036096;28;20099;-27
2023/06/24 02:45:03;;;;;;;12.65;8.45;;;;;;;27.00;58.21;96404.09;5035849;28;20471;-27
2023/06/24 02:47:30;;;;;;;17.85;8.75;;;;;;;27.03;58.13;96394.69;5043058;28;20024;-27
2023/06/24 02:49:57;;;;;;;15.65;8.48;;;;;;;26.97;58.47;96392.00;5036110;28;20022;-27
2023/06/24 02:52:24;;;;;;;18.25;8.20;;;;;;;26.99;58.40;96397.03;5035921;28;20026;-26
2023/06/24 02:54:49;;;;;;;17.60;8.52;;;;;;;27.10;57.67;96397.56;5035803;28;20426;-27
2023/06/24 02:57:15;;;;;;;21.50;9.10;;;;;;;27.18;56.99;96381.72;5035746;28;20079;-27
2023/06/24 02:59:41;;;;;;;15.90;8.43;;;;;;;27.16;57.49;96375.19;5035596;28;20022;-27
2023/06/24 03:02:07;;;;;;;16.75;8.05;;;;;;;27.07;57.34;96376.38;5035649;28;20497;-28
2023/06/24 03:04:33;;;;;;;12.75;8.18;;;;;;;26.93;57.82;96377.69;5035772;28;20398;-26
2023/06/24 03:07:00;;;;;;;15.65;7.70;;;;;;;26.89;57.64;96370.91;5035959;28;20030;-27
2023/06/24 03:09:27;;;;;;;13.13;8.07;;;;;;;27.11;57.21;96371.22;5035464;28;20017;-26
2023/06/24 03:11:53;;;;;;;14.07;8.63;;;;;;;26.91;57.71;96374.66;5040667;28;20037;-27
2023/06/24 03:14:19;;;;;;;15.98;7.72;;;;;;;26.87;57.91;96390.16;5035248;28;20109;-26
2023/06/24 03:16:44;;;;;;;13.63;7.80;;;;;;;26.71;58.27;96378.81;5035459;28;20112;-27
2023/06/24 03:19:10;;;;;;;17.92;8.45;;;;;;;26.77;58.44;96381.50;5035436;28;20219;-27
2023/06/24 03:21:35;;;;;;;14.25;9.20;;;;;;;26.73;58.16;96387.38;5035131;28;20040;-27
2023/06/24 03:24:01;;;;;;;16.50;9.13;;;;;;;26.79;58.46;96403.97;5036052;28;20485;-26
2023/06/24 03:26:37;;;;;;;13.85;8.65;;;;;;;26.92;57.64;96408.78;5035365;28;20096;-29
2023/06/24 03:29:02;;;;;;;17.67;8.63;;;;;;;27.04;57.73;96398.97;5035147;28;20017;-27
2023/06/24 03:31:28;;;;;;;14.73;9.02;;;;;;;26.97;57.59;96396.81;5048331;28;20364;-26
2023/06/24 03:33:54;;;;;;;18.60;9.43;;;;;;;26.75;58.16;96417.47;5035076;28;20031;-27
2023/06/24 03:36:20;;;;;;;15.27;8.45;;;;;;;26.99;58.24;96405.38;5042436;28;20470;-27
2023/06/24 03:38:45;;;;;;;16.95;9.50;;;;;;;26.96;57.59;96412.75;5034672;28;20025;-27
2023/06/24 03:41:11;;;;;;;13.27;8.20;;;;;;;26.81;57.86;96420.91;5034531;28;20402;-27
2023/06/24 03:43:36;;;;;;;10.65;7.38;;;;;;;26.89;57.79;96421.75;5034872;28;20079;-28
2023/06/24 03:46:02;;;;;;;9.63;7.10;;;;;;;26.83;57.66;96421.84;5034520;28;20021;-26
2023/06/24 03:48:28;;;;;;;10.07;7.50;;;;;;;26.77;57.93;96421.22;5034827;28;20100;-26
2023/06/24 03:50:53;;;;;;;10.38;5.82;;;;;;;26.82;57.34;96411.28;5034676;28;20039;-27
2023/06/24 03:53:19;;;;;;;10.63;5.68;;;;;;;26.81;56.69;96410.53;5041603;28;20029;-26
2023/06/24 03:55:44;;;;;;;9.32;5.47;;;;;;;26.98;55.93;96415.00;5035541;28;20031;-27
2023/06/24 03:58:10;;;;;;;10.55;5.05;;;;;;;26.92;55.91;96415.13;5034445;28;20013;-26
2023/06/24 04:00:40;;;;;;;9.45;4.60;;;;;;;26.75;55.55;96426.56;5035459;28;20520;-27
2023/06/24 04:03:08;;;;;;;8.93;4.68;;;;;;;26.80;55.21;96431.28;5034231;28;20108;-27
2023/06/24 04:05:34;;;;;;;10.50;3.80;;;;;;;26.74;54.67;96433.41;5041565;28;20024;-26
2023/06/24 04:07:59;;;;;;;8.73;3.92;;;;;;;26.75;55.16;96434.16;5034831;28;20048;-27
2023/06/24 04:10:25;;;;;;;7.70;3.95;;;;;;;26.73;54.53;96437.47;5034576;28;20372;-27
2023/06/24 04:12:50;;;;;;;8.30;3.72;;;;;;;26.86;54.17;96433.94;5034504;28;20032;-27
2023/06/24 04:15:16;;;;;;;10.05;3.92;;;;;;;26.75;54.18;96429.34;5034228;28;20021;-27
2023/06/24 04:17:41;;;;;;;7.38;3.45;;;;;;;26.57;54.23;96430.19;5044695;28;20463;-27
2023/06/24 04:20:10;;;;;;;7.50;3.40;;;;;;;26.84;53.73;96436.50;5033937;28;20485;-28
2023/06/24 04:22:41;;;;;;;10.30;3.50;;;;;;;26.59;54.11;96426.84;5034606;28;20029;-26
2023/06/24 04:25:08;;;;;;;9.15;3.47;;;;;;;26.81;53.51;96427.22;5035085;28;20036;-27
2023/06/24 04:27:34;;;;;;;7.28;3.15;;;;;;;26.57;53.97;96423.88;5034189;28;20079;-26
2023/06/24 04:30:00;;;;;;;5.90;3.00;;;;;;;26.78;53.06;96417.16;5034115;28;20126;-27
2023/06/24 04:32:25;;;;;;;6.07;2.97;;;;;;;26.77;52.66;96421.22;5034239;28;20072;-29
2023/06/24 04:34:51;;;;;;;5.80;2.88;;;;;;;26.71;53.48;96426.13;5033719;28;20065;-27
2023/06/24 04:37:16;;;;;;;6.38;2.70;;;;;;;26.68;53.38;96424.44;5034298;28;20017;-27
2023/06/24 04:39:43;;;;;;;7.03;2.80;;;;;;;26.73;53.52;96431.91;5040712;28;20026;-27
2023/06/24 04:42:10;;;;;;;8.00;3.10;;;;;;;26.87;52.86;96434.69;5034186;28;20025;-28
2023/06/24 04:44:36;;;;;;;6.90;3.10;;;;;;;26.82;53.26;96434.28;5041115;28;20890;-27
2023/06/24 04:47:01;;;;;;;8.57;2.42;;;;;;;26.79;52.74;96432.56;5033971;28;20018;-27
2023/06/24 04:49:27;;;;;;;7.63;2.90;;;;;;;26.73;52.96;96434.69;5033911;28;20096;-27
2023/06/24 04:51:53;;;;;;;7.50;3.13;;;;;;;26.60;53.72;96434.66;5034167;28;20079;-26
2023/06/24 04:54:18;;;;;;;6.20;3.20;;;;;;;26.87;52.70;96445.81;5033793;28;20112;-27
2023/06/24 04:56:45;;;;;;;5.22;3.05;;;;;;;26.78;53.00;96444.97;5033598;28;20053;-27
2023/06/24 04:59:10;;;;;;;9.18;3.00;;;;;;;26.64;53.50;96443.47;5033591;28;20359;-27
2023/06/24 05:01:35;;;;;;;7.13;2.88;;;;;;;26.83;52.56;96446.88;5034484;28;20029;-28
2023/06/24 05:04:01;;;;;;;8.23;2.80;;;;;;;26.68;53.03;96449.47;5040277;28;20069;-26
2023/06/24 05:06:26;;;;;;;8.40;3.72;;;;;;;26.88;52.88;96450.09;5034266;28;20031;-26
2023/06/24 05:08:52;;;;;;;7.07;3.05;;;;;;;26.98;52.48;96456.75;5040805;28;20139;-27
2023/06/24 05:11:17;;;;;;;10.00;2.83;;;;;;;26.79;52.91;96449.25;5040517;28;20025;-26
2023/06/24 05:13:43;;;;;;;8.55;2.72;;;;;;;26.71;53.06;96451.16;5033393;28;20025;-26
2023/06/24 05:16:08;;;;;;;9.85;3.13;;;;;;;26.65;53.47;96458.88;5033482;28;20025;-28
2023/06/24 05:18:33;;;;;;;8.38;3.13;;;;;;;26.82;52.82;96461.34;5033415;28;20112;-27
2023/06/24 05:20:59;;;;;;;7.88;3.25;;;;;;;26.74;53.13;96469.56;5041948;28;20029;-26
2023/06/24 05:23:24;;;;;;;6.43;3.00;;;;;;;26.79;53.21;96477.06;5037701;28;20036;-27
2023/06/24 05:25:50;;;;;;;6.07;2.80;;;;;;;26.88;53.13;96472.38;5036029;28;20029;-26
2023/06/24 05:28:15;;;;;;;8.70;3.22;;;;;;;26.71;53.48;96472.66;5034105;28;20033;-26
2023/06/24 05:30:41;;;;;;;7.95;2.95;;;;;;;26.74;53.18;96472.34;5032942;28;20033;-27
2023/06/24 05:33:07;;;;;;;8.32;3.28;;;;;;;26.75;53.46;96479.41;5033484;28;20375;-27
2023/06/24 05:35:33;;;;;;;7.95;3.28;;;;;;;26.78;53.22;96489.50;5033396;28;20028;-27
2023/06/24 05:37:58;;;;;;;5.88;3.28;;;;;;;26.81;53.16;96487.69;5033383;28;20117;-27
2023/06/24 05:40:24;;;;;;;5.80;3.17;;;;;;;26.88;53.24;96475.16;5033283;28;20128;-26
2023/06/24 05:42:49;;;;;;;8.60;3.25;;;;;;;26.75;53.78;96481.44;5033668;28;20079;-27
2023/06/24 05:45:15;;;;;;;7.22;2.78;;;;;;;26.75;53.68;96490.53;5033078;28;20017;-27
2023/06/24 05:47:41;;;;;;;7.35;3.00;;;;;;;26.60;53.72;96498.66;5033427;28;20079;-27
2023/06/24 05:50:07;;;;;;;7.10;3.05;;;;;;;26.53;54.21;96495.75;5032776;28;20022;-27
2023/06/24 05:52:32;;;;;;;6.78;2.72;;;;;;;26.68;53.95;96496.75;5032997;28;20378;-26
2023/06/24 05:54:58;;;;;;;6.25;2.63;;;;;;;26.75;52.92;96495.34;5033015;28;20479;-26
2023/06/24 05:57:23;;;;;;;11.15;3.40;;;;;;;26.64;53.24;96490.75;5033160;28;20057;-27
2023/06/24 05:59:48;;;;;;;9.13;3.30;;;;;;;26.76;52.17;96486.47;5033151;28;20033;-27
2023/06/24 06:02:14;;;;;;;6.70;3.15;;;;;;;26.90;52.04;96495.59;5034943;28;20025;-26
2023/06/24 06:04:39;;;;;;;5.72;2.97;;;;;;;26.75;52.27;96510.03;5037293;28;20056;-27
2023/06/24 06:07:05;;;;;;;6.35;2.75;;;;;;;26.89;51.33;96502.44;5036632;28;20087;-26
2023/06/24 06:09:30;;;;;;;7.10;3.38;;;;;;;26.77;51.97;96521.38;5036442;28;20056;-26
2023/06/24 06:11:56;;;;;;;5.63;2.95;;;;;;;26.88;51.62;96511.31;5038408;28;20536;-26
2023/06/24 06:14:21;;;;;;;6.35;4.03;;;;;;;27.06;50.59;96524.44;5048957;28;20084;-26
2023/06/24 06:16:47;;;;;;;8.25;3.17;;;;;;;27.15;50.94;96521.97;5043737;28;20021;-27
2023/06/24 06:19:12;;;;;;;7.72;3.22;;;;;;;26.93;51.20;96522.41;5036335;28;20049;-27
2023/06/24 06:21:38;;;;;;;7.40;3.40;;;;;;;27.05;50.78;96523.69;5036415;28;20146;-26
2023/06/24 06:24:04;;;;;;;7.45;3.13;;;;;;;27.03;50.76;96519.94;5036643;28;20112;-26
2023/06/24 06:26:29;;;;;;;6.25;3.53;;;;;;;27.01;51.22;96516.94;5036449;28;20033;-26
2023/06/24 06:28:55;;;;;;;5.38;3.30;;;;;;;27.06;50.75;96519.63;5043374;28;20021;-26
2023/06/24 06:31:21;;;;;;;7.15;3.45;;;;;;;26.96;50.90;96507.38;5036628;28;20021;-26
2023/06/24 06:33:47;;;;;;;8.75;3.60;;;;;;;26.97;51.02;96506.09;5036172;28;20067;-26
2023/06/24 06:36:13;;;;;;;5.32;3.65;;;;;;;26.99;51.06;96511.13;5036221;28;20360;-26
2023/06/24 06:38:40;;;;;;;7.10;3.20;;;;;;;27.16;50.59;96514.38;5036198;28;20383;-26
2023/06/24 06:41:06;;;;;;;9.45;3.40;;;;;;;26.95;50.74;96507.94;5035856;28;20056;-26
2023/06/24 06:43:32;;;;;;;8.07;3.75;;;;;;;27.03;51.00;96511.59;5043898;28;20463;-26
2023/06/24 06:45:58;;;;;;;9.00;3.40;;;;;;;27.24;50.20;96506.88;5035988;28;20808;-26
2023/06/24 06:48:23;;;;;;;9.63;5.30;;;;;;;27.10;50.55;96508.91;5036060;28;20087;-26
2023/06/24 06:50:49;;;;;;;7.20;4.07;;;;;;;27.08;50.84;96499.56;5035861;28;20017;-26
2023/06/24 06:53:15;;;;;;;5.70;4.05;;;;;;;27.09;50.98;96498.28;5035835;28;20021;-26
2023/06/24 06:55:42;;;;;;;6.03;4.13;;;;;;;27.22;50.39;96503.84;5035775;28;20920;-26
2023/06/24 06:58:08;;;;;;;11.75;6.00;;;;;;;27.14;50.49;96498.19;5035985;28;20071;-26
2023/06/24 07:00:33;;;;;;;8.70;5.07;;;;;;;27.20;50.52;96498.06;5036199;28;20530;-26
2023/06/24 07:02:59;;;;;;;11.48;4.22;;;;;;;27.15;50.65;96498.94;5037952;28;20025;-26
2023/06/24 07:05:24;;;;;;;7.03;4.18;;;;;;;27.18;50.09;96497.88;5039672;28;20474;-26
2023/06/24 07:07:50;;;;;;;6.25;3.72;;;;;;;27.09;50.80;96495.50;5035538;28;20112;-26
2023/06/24 07:10:16;;;;;;;6.60;4.13;;;;;;;27.20;50.63;96502.91;5035457;28;20021;-27
2023/06/24 07:12:41;;;;;;;7.53;3.85;;;;;;;27.12;50.43;96495.19;5035547;28;20029;-26
2023/06/24 07:15:07;;;;;;;5.88;3.97;;;;;;;27.15;50.46;96498.94;5035800;28;20017;-27
2023/06/24 07:17:32;;;;;;;9.75;4.40;;;;;;;27.09;50.95;96495.50;5035773;28;20108;-26
2023/06/24 07:19:58;;;;;;;10.55;5.35;;;;;;;27.30;49.97;96496.38;5035178;28;20025;-27
2023/06/24 07:22:23;;;;;;;7.45;4.80;;;;;;;27.21;49.76;96499.56;5035126;28;20053;-26
2023/06/24 07:24:49;;;;;;;8.25;4.32;;;;;;;27.24;50.19;96500.53;5034838;28;20030;-26
2023/06/24 07:27:14;;;;;;;7.82;3.85;;;;;;;27.41;49.99;96501.72;5040966;28;20033;-26
2023/06/24 07:29:41;;;;;;;7.03;4.00;;;;;;;27.35;50.29;96503.84;5040175;28;20452;-28
2023/06/24 07:32:07;;;;;;;8.85;4.03;;;;;;;27.38;49.86;96500.00;5042306;28;20494;-26
2023/06/24 07:34:33;;;;;;;8.30;4.35;;;;;;;27.46;49.92;96488.94;5035405;28;20040;-26
2023/06/24 07:36:58;;;;;;;7.63;3.78;;;;;;;27.41;50.47;96495.41;5035141;28;20105;-26
2023/06/24 07:39:23;;;;;;;7.25;3.78;;;;;;;27.39;50.30;96495.94;5035164;28;20871;-26
2023/06/24 07:41:49;;;;;;;5.43;4.10;;;;;;;27.46;49.91;96500.09;5034281;28;20447;-26
2023/06/24 07:44:14;;;;;;;5.72;3.67;;;;;;;27.42;50.36;96500.44;5034832;28;20577;-26
2023/06/24 07:46:40;;;;;;;6.80;4.03;;;;;;;27.39;50.48;96506.31;5037748;28;20475;-27
2023/06/24 07:49:05;;;;;;;8.27;3.85;;;;;;;27.42;50.32;96500.44;5038984;28;20013;-26
2023/06/24 07:51:31;;;;;;;5.68;4.03;;;;;;;27.51;49.73;96511.13;5035219;28;20029;-26
2023/06/24 07:53:56;;;;;;;7.45;4.10;;;;;;;27.43;50.27;96496.38;5034645;28;20020;-26
2023/06/24 07:56:22;;;;;;;8.30;4.15;;;;;;;27.41;50.00;96498.94;5034465;28;20017;-26
2023/06/24 07:58:47;;;;;;;6.80;3.60;;;;;;;27.58;49.52;96500.63;5034646;28;20044;-26
2023/06/24 08:01:12;;;;;;;5.60;3.65;;;;;;;27.71;48.96;96503.38;5034198;28;20017;-26
2023/06/24 08:03:38;;;;;;;8.98;3.92;;;;;;;27.58;48.86;96517.34;5034663;28;20078;-26
2023/06/24 08:06:04;;;;;;;5.72;3.25;;;;;;;27.59;48.16;96507.69;5035263;28;20107;-26
2023/06/24 08:08:29;;;;;;;3.90;3.38;;;;;;;27.56;47.77;96514.38;5034229;28;20156;-26
2023/06/24 08:10:55;;;;;;;7.70;3.67;;;;;;;27.48;47.97;96511.44;5034490;28;20037;-27
2023/06/24 08:13:20;;;;;;;7.72;3.17;;;;;;;27.52;48.00;96509.09;5034030;28;20025;-26
2023/06/24 08:15:46;;;;;;;9.07;3.47;;;;;;;27.57;48.54;96504.72;5034550;28;20112;-26
2023/06/24 08:18:11;;;;;;;6.40;3.10;;;;;;;27.37;48.38;96515.22;5034494;28;20017;-26
2023/06/24 08:20:37;;;;;;;7.97;3.33;;;;;;;27.63;48.30;96506.09;5038342;28;20488;-27
2023/06/24 08:23:02;;;;;;;6.20;3.35;;;;;;;27.53;48.35;96505.03;5034550;28;20107;-26
2023/06/24 08:25:28;;;;;;;5.63;3.13;;;;;;;27.73;48.01;96517.53;5033580;28;20029;-26
2023/06/24 08:27:53;;;;;;;7.00;3.20;;;;;;;27.57;48.42;96513.09;5033931;28;20345;-26
2023/06/24 08:30:19;;;;;;;7.30;3.40;;;;;;;27.77;48.39;96501.25;5034015;28;20115;-26
2023/06/24 08:32:44;;;;;;;9.27;3.95;;;;;;;27.73;48.02;96495.25;5034088;28;20025;-26
2023/06/24 08:35:10;;;;;;;7.28;3.28;;;;;;;27.79;48.21;96498.66;5047608;28;20061;-26
2023/06/24 08:37:37;;;;;;;7.65;3.40;;;;;;;27.71;48.34;96503.38;5034000;28;20026;-27
2023/06/24 08:40:07;;;;;;;9.60;3.97;;;;;;;27.81;48.20;96498.88;5040737;28;20377;-26
2023/06/24 08:42:32;;;;;;;8.88;3.97;;;;;;;27.89;47.75;96508.81;5041204;28;20029;-26
2023/06/24 08:44:58;;;;;;;6.05;3.05;;;;;;;27.83;47.35;96504.66;5033957;28;20026;-26
2023/06/24 08:47:29;;;;;;;7.38;3.17;;;;;;;27.62;47.75;96501.06;5034265;28;20028;-26
2023/06/24 08:50:08;;;;;;;5.72;3.38;;;;;;;27.67;47.43;96506.53;5033638;28;20482;-26
2023/06/24 08:52:37;;;;;;;4.25;2.80;;;;;;;27.79;47.14;96498.66;5040772;28;20048;-26
2023/06/24 08:55:06;;;;;;;6.65;3.13;;;;;;;27.79;46.48;96504.25;5033416;28;20377;-26
2023/06/24 08:57:31;;;;;;;6.15;3.13;;;;;;;27.79;46.83;96507.03;5033829;28;20021;-26
2023/06/24 08:59:57;;;;;;;4.38;2.58;;;;;;;27.89;46.19;96510.84;5033343;28;20025;-26
2023/06/24 09:02:23;;;;;;;7.00;2.85;;;;;;;27.83;45.84;96510.22;5033668;28;20023;-26
2023/06/24 09:04:51;;;;;;;7.70;3.00;;;;;;;27.91;45.65;96511.06;5034159;28;20033;-27
2023/06/24 09:07:27;;;;;;;4.63;2.65;;;;;;;27.81;45.51;96512.81;5033647;28;20055;-26
2023/06/24 09:09:53;;;;;;;7.60;2.72;;;;;;;27.78;45.98;96511.09;5039104;28;20021;-26
2023/06/24 09:12:18;;;;;;;5.90;2.63;;;;;;;27.83;45.84;96516.53;5033855;28;20075;-27
2023/06/24 09:14:51;;;;;;;4.80;2.80;;;;;;;27.78;46.23;96520.22;5033301;28;20035;-26
2023/06/24 09:17:17;;;;;;;3.63;2.50;;;;;;;27.74;46.02;96516.25;5033352;28;20467;-27
2023/06/24 09:19:43;;;;;;;5.40;3.03;;;;;;;27.78;46.01;96511.84;5033142;28;20037;-26
2023/06/24 09:22:17;;;;;;;4.90;2.78;;;;;;;27.87;45.77;96513.44;5033612;28;20037;-26
2023/06/24 09:24:46;;;;;;;6.82;2.67;;;;;;;27.93;45.98;96519.66;5033681;28;20459;-27
2023/06/24 09:27:17;;;;;;;6.35;2.70;;;;;;;27.93;45.80;96513.31;5041252;28;20029;-27
2023/06/24 09:29:43;;;;;;;9.88;3.00;;;;;;;27.91;46.12;96516.66;5033013;28;20018;-26
2023/06/24 09:32:09;;;;;;;5.30;2.95;;;;;;;27.96;45.72;96512.22;5033278;28;20017;-26
2023/06/24 09:34:35;;;;;;;5.53;2.15;;;;;;;27.80;45.83;96516.88;5033035;28;20052;-27
2023/06/24 09:37:01;;;;;;;4.82;2.72;;;;;;;27.81;46.06;96513.56;5034844;28;20037;-26
2023/06/24 09:39:30;;;;;;;6.63;2.70;;;;;;;27.95;45.79;96514.25;5044882;28;20021;-26
2023/06/24 09:42:00;;;;;;;5.72;2.85;;;;;;;28.01;45.62;96508.56;5037377;28;20100;-27
2023/06/24 09:44:27;;;;;;;11.07;3.53;;;;;;;27.98;45.38;96521.53;5036938;28;20025;-26
2023/06/24 09:46:53;;;;;;;4.78;2.65;;;;;;;27.91;45.30;96516.66;5037543;28;20063;-26
2023/06/24 09:49:19;;;;;;;4.20;2.20;;;;;;;27.89;45.51;96510.84;5036809;28;20104;-26
2023/06/24 09:51:57;;;;;;;4.28;2.33;;;;;;;28.01;45.24;96526.03;5036971;28;20467;-27
2023/06/24 09:54:26;;;;;;;5.82;2.80;;;;;;;27.90;45.66;96512.34;5037137;28;20383;-26
2023/06/24 09:56:53;;;;;;;5.78;2.38;;;;;;;27.97;45.86;96508.88;5040270;28;20021;-26
2023/06/24 09:59:21;;;;;;;5.30;2.80;;;;;;;27.94;45.87;96515.56;5040371;28;20107;-26
2023/06/24 10:01:48;;;;;;;8.50;2.75;;;;;;;27.93;45.73;96518.91;5036957;28;20104;-26
2023/06/24 10:04:18;;;;;;;4.72;2.97;;;;;;;28.12;45.32;96502.72;5036738;28;20091;-26
2023/06/24 10:06:45;;;;;;;13.40;2.70;;;;;;;28.00;45.75;96509.84;5037061;28;20022;-26
2023/06/24 10:09:13;;;;;;;6.40;2.47;;;;;;;27.92;45.27;96512.56;5036448;28;20045;-27
2023/06/24 10:11:39;;;;;;;7.03;2.60;;;;;;;28.04;45.48;96508.25;5036320;28;20099;-26
2023/06/24 10:14:04;;;;;;;8.05;2.53;;;;;;;28.08;45.33;96511.44;5036899;28;20025;-26
2023/06/24 10:16:30;;;;;;;5.43;2.50;;;;;;;28.06;45.56;96504.91;5036427;28;20514;-26
2023/06/24 10:19:03;;;;;;;5.50;2.15;;;;;;;28.04;45.20;96502.66;5036413;28;20029;-26
2023/06/24 10:21:44;;;;;;;;;;;;;;;27.96;45.71;96504.59;5036970;28;20379;-27
2023/06/24 10:24:10;;;;;;;4.32;2.70;;;;;;;28.01;45.59;96509.31;5043260;28;19913;-27
2023/06/24 10:26:36;;;;;;;4.60;2.17;;;;;;;27.99;45.91;96502.78;5036169;28;20064;-26
2023/06/24 10:29:07;;;;;;;4.43;2.08;;;;;;;28.10;45.66;96500.47;5036751;28;20084;-26
2023/06/24 10:31:39;;;;;;;9.55;2.50;;;;;;;28.06;45.09;96502.88;5036410;28;20429;-27
2023/06/24 10:34:23;;;;;;;6.65;2.33;;;;;;;28.07;44.95;96495.97;5036559;28;20067;-27
2023/06/24 10:37:07;;;;;;;4.82;2.45;;;;;;;28.10;44.82;96497.69;5036158;28;20085;-27
2023/06/24 10:39:51;;;;;;;6.38;2.90;;;;;;;28.13;45.18;96487.50;5043559;28;20029;-26
2023/06/24 10:42:31;;;;;;;4.38;2.33;;;;;;;28.10;44.93;96483.75;5035524;28;20076;-28
2023/06/24 10:45:15;;;;;;;6.28;2.78;;;;;;;28.04;44.70;96479.63;5034786;28;20022;-26
2023/06/24 10:47:43;;;;;;;8.00;2.13;;;;;;;28.02;45.05;96484.97;5042053;28;20021;-28
2023/06/24 10:50:11;;;;;;;4.85;2.22;;;;;;;28.07;45.06;96487.63;5034863;28;20021;-27
2023/06/24 10:52:57;;;;;;;7.68;2.42;;;;;;;28.14;44.40;96477.84;5034988;28;20047;-26
2023/06/24 10:55:26;;;;;;;5.32;2.22;;;;;;;28.17;45.34;96474.72;5035009;28;20071;-26
2023/06/24 10:57:51;;;;;;;6.22;2.17;;;;;;;28.12;44.83;96481.19;5034617;28;20471;-26
2023/06/24 11:00:17;;;;;;;3.10;1.75;;;;;;;28.19;45.16;96477.72;5034916;28;20108;-26
2023/06/24 11:02:44;;;;;;;6.07;2.22;;;;;;;28.10;44.79;96480.22;5034817;28;20025;-27
2023/06/24 11:05:09;;;;;;;6.00;2.45;;;;;;;28.13;44.42;96463.16;5034484;28;20025;-27
2023/06/24 11:07:37;;;;;;;8.18;2.33;;;;;;;28.18;44.43;96459.53;5045400;28;20132;-27
2023/06/24 11:10:05;;;;;;;6.10;2.63;;;;;;;28.07;44.84;96472.94;5042994;28;20371;-26
2023/06/24 11:12:35;;;;;;;7.35;2.10;;;;;;;28.05;44.29;96453.22;5034434;28;20091;-26
2023/06/24 11:15:03;;;;;;;7.40;3.42;;;;;;;28.21;44.14;96452.84;5036222;28;20017;-26
2023/06/24 11:17:29;;;;;;;5.60;2.45;;;;;;;28.20;44.47;96459.72;5039087;28;20064;-27
2023/06/24 11:19:56;;;;;;;3.78;2.17;;;;;;;28.09;44.74;96453.63;5034599;28;20041;-27
2023/06/24 11:22:22;;;;;;;7.47;3.28;;;;;;;28.22;44.21;96457.13;5037896;28;20033;-26
2023/06/24 11:24:47;;;;;;;5.60;2.45;;;;;;;28.08;44.51;96466.81;5033974;28;20029;-27
2023/06/24 11:27:13;;;;;;;5.28;2.70;;;;;;;28.12;44.62;96456.09;5034310;28;20079;-26
2023/06/24 11:29:38;;;;;;;6.65;2.67;;;;;;;28.12;44.33;96446.97;5034233;28;20104;-26
2023/06/24 11:32:07;;;;;;;5.10;2.40;;;;;;;28.24;43.86;96448.22;5034788;28;20033;-26